Time;durP1;ratioP1;P1;durP2;ratioP2;P2;SDS_P1;SDS_P2;PMS_P1;PMS_P2;Temp;Humidity;BMP_temperature;BMP_pressure;BME280_temperature;BME280_humidity;BME280_pressure;Samples;Min_cycle;Max_cycle;Signal;HPM_P1;HPM_P2
2023/09/08 00:01:20;;;;;;;4.43;3.47;;;;;;;;;;10409027;28;20025;-46
2023/09/08 00:06:21;;;;;;;5.10;3.30;;;;;;;;;;10412052;28;20026;-46
2023/09/08 00:11:21;;;;;;;6.05;3.85;;;;;;;;;;10402371;28;20095;-46
2023/09/08 00:16:22;;;;;;;5.10;3.45;;;;;;;;;;10410268;28;20034;-46
2023/09/08 00:21:24;;;;;;;7.18;3.58;;;;;;;;;;10408412;28;20037;-46
2023/09/08 00:26:24;;;;;;;6.05;3.42;;;;;;;;;;10403530;28;20094;-46
2023/09/08 00:31:25;;;;;;;4.45;3.40;;;;;;;;;;10397732;28;20038;-46
2023/09/08 00:36:25;;;;;;;4.55;3.45;;;;;;;;;;10409066;28;20041;-47
2023/09/08 00:41:26;;;;;;;6.57;3.40;;;;;;;;;;10408566;28;20018;-46
2023/09/08 00:46:27;;;;;;;4.93;3.75;;;;;;;;;;10409311;28;20057;-46
2023/09/08 00:51:28;;;;;;;6.45;3.50;;;;;;;;;;10404604;28;20033;-46
2023/09/08 00:56:29;;;;;;;5.75;3.22;;;;;;;;;;10403136;28;20029;-46
2023/09/08 01:01:31;;;;;;;3.92;3.08;;;;;;;;;;10407245;28;20405;-46
2023/09/08 01:06:32;;;;;;;5.78;3.03;;;;;;;;;;10408544;28;20029;-46
2023/09/08 01:11:34;;;;;;;6.40;3.45;;;;;;;;;;10406464;28;20476;-47
2023/09/08 01:16:34;;;;;;;4.57;3.65;;;;;;;;;;10408969;28;20037;-46
2023/09/08 01:21:52;;;;;;;6.68;3.53;;;;;;;;;;10403724;28;20104;-46
2023/09/08 01:26:53;;;;;;;3.85;3.45;;;;;;;;;;10398095;28;20025;-46
2023/09/08 01:31:53;;;;;;;4.63;3.70;;;;;;;;;;10406845;28;20041;-47
2023/09/08 01:36:54;;;;;;;4.28;3.00;;;;;;;;;;10397334;28;20540;-46
2023/09/08 01:41:55;;;;;;;4.95;3.47;;;;;;;;;;10399951;28;20068;-46
2023/09/08 01:46:56;;;;;;;7.25;3.75;;;;;;;;;;10402981;28;20481;-46
2023/09/08 01:51:57;;;;;;;6.45;3.13;;;;;;;;;;10404918;28;20034;-47
2023/09/08 01:56:58;;;;;;;4.53;3.38;;;;;;;;;;10393661;28;20021;-46
2023/09/08 02:01:58;;;;;;;5.32;3.65;;;;;;;;;;10406702;28;20029;-46
2023/09/08 02:06:59;;;;;;;4.57;3.63;;;;;;;;;;10412153;28;20099;-47
2023/09/08 02:12:01;;;;;;;3.67;3.20;;;;;;;;;;10404448;28;20061;-47
2023/09/08 02:17:02;;;;;;;6.35;3.38;;;;;;;;;;10406775;28;20057;-47
2023/09/08 02:22:03;;;;;;;4.30;3.20;;;;;;;;;;10404273;28;20041;-47
2023/09/08 02:27:03;;;;;;;7.13;3.47;;;;;;;;;;10403796;28;20037;-46
2023/09/08 02:32:04;;;;;;;5.32;3.17;;;;;;;;;;10405824;28;20025;-48
2023/09/08 02:37:05;;;;;;;6.85;3.85;;;;;;;;;;10398245;28;20047;-46
2023/09/08 02:42:06;;;;;;;5.03;3.38;;;;;;;;;;10392268;28;20026;-46
2023/09/08 02:47:06;;;;;;;8.10;3.17;;;;;;;;;;10404233;28;20052;-46
2023/09/08 02:52:07;;;;;;;5.15;3.30;;;;;;;;;;10404137;28;20076;-47
2023/09/08 02:57:07;;;;;;;5.45;3.42;;;;;;;;;;10404809;28;20040;-46
2023/09/08 03:02:08;;;;;;;5.97;4.03;;;;;;;;;;10399828;28;20033;-46
2023/09/08 03:07:08;;;;;;;5.53;3.78;;;;;;;;;;10405272;28;20025;-46
2023/09/08 03:12:09;;;;;;;3.50;3.20;;;;;;;;;;10403655;28;20025;-47
2023/09/08 03:17:10;;;;;;;4.97;3.35;;;;;;;;;;10402680;28;20029;-46
2023/09/08 03:22:10;;;;;;;4.07;3.13;;;;;;;;;;10402259;28;20041;-45
2023/09/08 03:27:11;;;;;;;4.60;3.40;;;;;;;;;;10403356;28;20021;-45
2023/09/08 03:32:11;;;;;;;4.57;3.63;;;;;;;;;;10394664;28;20168;-46
2023/09/08 03:37:12;;;;;;;6.50;3.65;;;;;;;;;;10402246;28;20100;-47
2023/09/08 03:42:13;;;;;;;4.80;3.20;;;;;;;;;;10403487;28;20267;-47
2023/09/08 03:47:13;;;;;;;5.28;3.15;;;;;;;;;;10395147;28;20042;-46
2023/09/08 03:52:14;;;;;;;5.00;3.38;;;;;;;;;;10376218;28;20460;-46
2023/09/08 03:57:14;;;;;;;4.47;3.50;;;;;;;;;;10402373;28;20025;-46
2023/09/08 04:02:15;;;;;;;6.35;3.60;;;;;;;;;;10389520;28;20072;-46
2023/09/08 04:07:15;;;;;;;4.40;3.30;;;;;;;;;;10402521;28;20508;-47
2023/09/08 04:12:16;;;;;;;5.28;3.75;;;;;;;;;;10401347;28;20374;-46
2023/09/08 04:17:17;;;;;;;4.35;3.35;;;;;;;;;;10406688;28;20488;-46
2023/09/08 04:22:17;;;;;;;6.43;3.30;;;;;;;;;;10409062;28;20484;-48
2023/09/08 04:27:18;;;;;;;5.50;3.80;;;;;;;;;;10411035;28;20030;-46
2023/09/08 04:32:18;;;;;;;6.22;3.78;;;;;;;;;;10399370;28;20048;-46
2023/09/08 04:37:19;;;;;;;4.25;3.47;;;;;;;;;;10400885;28;20029;-45
2023/09/08 04:42:19;;;;;;;4.80;3.67;;;;;;;;;;10410196;28;20032;-46
2023/09/08 04:47:20;;;;;;;5.65;3.40;;;;;;;;;;10405975;28;20021;-47
2023/09/08 04:52:21;;;;;;;4.32;3.80;;;;;;;;;;10404055;28;20117;-46
2023/09/08 04:57:21;;;;;;;4.90;3.72;;;;;;;;;;10399621;28;20498;-46
2023/09/08 05:02:22;;;;;;;4.25;3.33;;;;;;;;;;10410056;28;20517;-46
2023/09/08 05:07:22;;;;;;;5.13;3.30;;;;;;;;;;10406865;28;20507;-46
2023/09/08 05:12:23;;;;;;;7.72;3.80;;;;;;;;;;10397561;28;20469;-47
2023/09/08 05:17:24;;;;;;;5.13;3.42;;;;;;;;;;10407189;28;20032;-46
2023/09/08 05:22:24;;;;;;;5.40;3.42;;;;;;;;;;10409636;28;20063;-48
2023/09/08 05:27:25;;;;;;;5.15;3.63;;;;;;;;;;10407698;28;20036;-46
2023/09/08 05:32:25;;;;;;;5.30;3.28;;;;;;;;;;10397802;28;20025;-46
2023/09/08 05:37:26;;;;;;;5.05;3.50;;;;;;;;;;10394955;28;20511;-46
2023/09/08 05:42:26;;;;;;;5.82;3.40;;;;;;;;;;10406653;28;20040;-46
2023/09/08 05:47:27;;;;;;;4.47;3.53;;;;;;;;;;10399768;28;20037;-46
2023/09/08 05:52:28;;;;;;;5.30;3.30;;;;;;;;;;10404833;28;20030;-46
2023/09/08 05:57:28;;;;;;;5.18;3.70;;;;;;;;;;10398268;28;20025;-49
2023/09/08 06:02:29;;;;;;;4.30;3.30;;;;;;;;;;10403257;28;20051;-46
2023/09/08 06:07:30;;;;;;;14.73;4.20;;;;;;;;;;10401535;28;20036;-46
2023/09/08 06:12:30;;;;;;;8.38;4.20;;;;;;;;;;10404914;28;20037;-46
2023/09/08 06:17:31;;;;;;;10.57;4.25;;;;;;;;;;10400466;28;20030;-45
2023/09/08 06:22:31;;;;;;;14.80;3.75;;;;;;;;;;10404747;28;20021;-45
2023/09/08 06:27:32;;;;;;;15.23;4.68;;;;;;;;;;10404414;28;20034;-46
2023/09/08 06:32:33;;;;;;;5.97;4.22;;;;;;;;;;10399683;28;20067;-45
2023/09/08 06:37:39;;;;;;;9.20;4.00;;;;;;;;;;10408643;28;20029;-47
2023/09/08 06:42:40;;;;;;;6.90;3.70;;;;;;;;;;10408041;28;22027;-45
2023/09/08 06:47:40;;;;;;;5.53;3.90;;;;;;;;;;10410593;28;20033;-45
2023/09/08 06:52:41;;;;;;;5.60;4.30;;;;;;;;;;10394660;28;20503;-45
2023/09/08 06:57:45;;;;;;;9.20;4.25;;;;;;;;;;10406481;28;20362;-45
2023/09/08 07:02:46;;;;;;;8.30;4.10;;;;;;;;;;10404169;28;20108;-45
2023/09/08 07:07:46;;;;;;;6.47;3.55;;;;;;;;;;10398528;28;20029;-45
2023/09/08 07:12:48;;;;;;;7.03;3.70;;;;;;;;;;10405170;28;20036;-45
2023/09/08 07:17:48;;;;;;;9.38;4.03;;;;;;;;;;10403740;28;20021;-45
2023/09/08 07:22:49;;;;;;;5.65;3.42;;;;;;;;;;10405555;28;20025;-45
2023/09/08 07:27:52;;;;;;;5.22;3.65;;;;;;;;;;10394933;28;20369;-45
2023/09/08 07:32:53;;;;;;;6.47;3.60;;;;;;;;;;10403978;28;20037;-45
2023/09/08 07:37:53;;;;;;;5.50;3.38;;;;;;;;;;10405154;28;20022;-46
2023/09/08 07:42:54;;;;;;;8.50;3.75;;;;;;;;;;10405308;28;20069;-45
2023/09/08 07:47:54;;;;;;;7.07;3.92;;;;;;;;;;10399390;28;20025;-48
2023/09/08 07:52:56;;;;;;;6.15;3.50;;;;;;;;;;10409284;28;20541;-49
2023/09/08 07:57:57;;;;;;;5.88;3.88;;;;;;;;;;10410665;28;20032;-46
2023/09/08 08:02:58;;;;;;;4.40;3.67;;;;;;;;;;10402909;28;20382;-48
2023/09/08 08:07:59;;;;;;;7.05;3.70;;;;;;;;;;10411484;28;20435;-46
2023/09/08 08:12:59;;;;;;;7.57;3.53;;;;;;;;;;10402886;28;20114;-47
2023/09/08 08:18:00;;;;;;;5.10;3.60;;;;;;;;;;10400884;28;20025;-55
2023/09/08 08:23:06;;;;;;;5.30;3.78;;;;;;;;;;10409123;28;20097;-45
2023/09/08 08:28:06;;;;;;;7.28;3.50;;;;;;;;;;10409066;28;20021;-49
2023/09/08 08:33:07;;;;;;;5.82;4.10;;;;;;;;;;10407451;28;20477;-45
2023/09/08 08:38:07;;;;;;;4.20;3.80;;;;;;;;;;10409187;28;20025;-47
2023/09/08 08:43:08;;;;;;;6.80;4.43;;;;;;;;;;10409399;28;20497;-47
2023/09/08 08:48:10;;;;;;;6.65;4.20;;;;;;;;;;10410151;28;20337;-46
2023/09/08 08:53:12;;;;;;;9.20;4.18;;;;;;;;;;10408614;28;20182;-55
2023/09/08 08:58:14;;;;;;;8.48;4.55;;;;;;;;;;10399635;28;20381;-59
2023/09/08 09:03:15;;;;;;;7.85;4.50;;;;;;;;;;10409407;28;20118;-45
2023/09/08 09:08:18;;;;;;;9.98;4.65;;;;;;;;;;10420128;28;20439;-53
2023/09/08 09:13:19;;;;;;;10.35;4.78;;;;;;;;;;10424475;28;20040;-45
2023/09/08 09:18:20;;;;;;;12.45;4.43;;;;;;;;;;10403380;28;20033;-56
2023/09/08 09:23:34;;;;;;;12.75;4.93;;;;;;;;;;10405346;28;20025;-46
2023/09/08 09:28:47;;;;;;;9.65;4.53;;;;;;;;;;10404281;28;20117;-53
2023/09/08 09:33:47;;;;;;;9.65;4.70;;;;;;;;;;10409723;28;20040;-45
2023/09/08 09:38:48;;;;;;;13.15;4.93;;;;;;;;;;10407493;28;20052;-51
2023/09/08 09:43:49;;;;;;;10.68;4.38;;;;;;;;;;10407931;28;20113;-45
2023/09/08 09:48:58;;;;;;;5.70;4.03;;;;;;;;;;10407118;28;20048;-60
2023/09/08 09:53:58;;;;;;;9.95;5.22;;;;;;;;;;10407416;28;20117;-59
2023/09/08 09:59:02;;;;;;;9.38;3.92;;;;;;;;;;10405772;28;20400;-58
2023/09/08 10:04:04;;;;;;;10.15;4.10;;;;;;;;;;10403589;28;20443;-56
2023/09/08 10:09:13;;;;;;;9.02;4.43;;;;;;;;;;10406006;28;20049;-46
2023/09/08 10:14:18;;;;;;;7.50;3.83;;;;;;;;;;10404785;28;20030;-45
2023/09/08 10:19:21;;;;;;;10.90;4.18;;;;;;;;;;10408524;28;20484;-45
2023/09/08 10:24:26;;;;;;;7.88;3.78;;;;;;;;;;10406776;28;20025;-45
2023/09/08 10:29:28;;;;;;;6.78;3.80;;;;;;;;;;10405598;28;20026;-61
2023/09/08 10:34:30;;;;;;;7.97;3.72;;;;;;;;;;10406433;28;20031;-45
2023/09/08 10:39:38;;;;;;;13.77;3.60;;;;;;;;;;10403713;28;20029;-45
2023/09/08 10:44:39;;;;;;;7.18;3.75;;;;;;;;;;10403993;28;20037;-45
2023/09/08 10:49:40;;;;;;;7.22;3.67;;;;;;;;;;10397048;28;20044;-46
2023/09/08 10:54:53;;;;;;;7.18;3.97;;;;;;;;;;10405969;28;20567;-45
2023/09/08 11:00:04;;;;;;;4.93;3.65;;;;;;;;;;10396379;28;20033;-45
2023/09/08 11:05:13;;;;;;;7.53;3.72;;;;;;;;;;10407355;28;20036;-49
2023/09/08 11:10:14;;;;;;;4.30;3.90;;;;;;;;;;10408651;28;20039;-45
2023/09/08 11:15:15;;;;;;;9.60;3.60;;;;;;;;;;10405416;28;20029;-45
2023/09/08 11:20:16;;;;;;;8.98;3.85;;;;;;;;;;10387738;28;20049;-46
2023/09/08 11:25:16;;;;;;;9.23;4.10;;;;;;;;;;10404165;28;20037;-46
2023/09/08 11:30:17;;;;;;;7.35;3.50;;;;;;;;;;10402816;28;20025;-62
2023/09/08 11:35:20;;;;;;;11.20;4.15;;;;;;;;;;10411889;28;20038;-45
2023/09/08 11:40:23;;;;;;;9.43;3.72;;;;;;;;;;10407037;28;20500;-46
2023/09/08 11:45:24;;;;;;;10.27;3.80;;;;;;;;;;10397225;28;20489;-45
2023/09/08 11:50:24;;;;;;;11.80;4.00;;;;;;;;;;10399685;28;20041;-48
2023/09/08 11:55:25;;;;;;;8.98;3.78;;;;;;;;;;10401160;28;20040;-46
2023/09/08 12:00:27;;;;;;;6.25;3.92;;;;;;;;;;10408722;28;20017;-45
2023/09/08 12:05:29;;;;;;;8.15;3.45;;;;;;;;;;10403975;28;20435;-46
2023/09/08 12:10:30;;;;;;;7.43;3.80;;;;;;;;;;10414285;28;20029;-46
2023/09/08 12:15:38;;;;;;;8.70;4.13;;;;;;;;;;10416999;28;20026;-46
2023/09/08 12:20:40;;;;;;;7.00;3.90;;;;;;;;;;10410251;28;20097;-45
2023/09/08 12:25:48;;;;;;;11.52;3.97;;;;;;;;;;10413081;28;20040;-45
2023/09/08 12:30:49;;;;;;;5.88;3.67;;;;;;;;;;10397577;28;20030;-45
2023/09/08 12:35:52;;;;;;;8.13;3.10;;;;;;;;;;10409263;28;20033;-45
2023/09/08 12:40:53;;;;;;;13.35;3.67;;;;;;;;;;10415999;28;20040;-49
2023/09/08 12:45:54;;;;;;;10.43;3.65;;;;;;;;;;10403032;28;20405;-45
2023/09/08 12:50:54;;;;;;;8.10;3.70;;;;;;;;;;10410994;28;20025;-45
2023/09/08 12:55:55;;;;;;;9.48;3.95;;;;;;;;;;10408638;28;20029;-46
2023/09/08 13:00:56;;;;;;;9.10;3.75;;;;;;;;;;10411045;28;20092;-46
2023/09/08 13:05:57;;;;;;;8.00;4.07;;;;;;;;;;10409884;28;20028;-45
2023/09/08 13:10:57;;;;;;;12.65;4.65;;;;;;;;;;10407855;28;20060;-45
2023/09/08 13:15:58;;;;;;;6.85;4.25;;;;;;;;;;10401175;28;20389;-45
2023/09/08 13:20:58;;;;;;;8.98;3.95;;;;;;;;;;10408296;28;20384;-45
2023/09/08 13:25:59;;;;;;;10.70;4.15;;;;;;;;;;10403438;28;20407;-46
2023/09/08 13:31:00;;;;;;;7.55;3.60;;;;;;;;;;10409468;28;20496;-48
2023/09/08 13:36:00;;;;;;;18.95;4.28;;;;;;;;;;10407666;28;20135;-50
2023/09/08 13:41:01;;;;;;;11.48;4.13;;;;;;;;;;10403111;28;20124;-47
2023/09/08 13:46:01;;;;;;;9.70;4.03;;;;;;;;;;10407185;28;20118;-47
2023/09/08 13:51:03;;;;;;;10.45;4.10;;;;;;;;;;10406629;28;20446;-45
2023/09/08 13:56:05;;;;;;;12.52;4.43;;;;;;;;;;10415295;28;20477;-57
2023/09/08 14:01:06;;;;;;;9.75;4.20;;;;;;;;;;10405378;28;20512;-59
2023/09/08 14:06:07;;;;;;;9.57;3.83;;;;;;;;;;10404549;28;20037;-62
2023/09/08 14:11:08;;;;;;;11.23;3.63;;;;;;;;;;10406554;28;20041;-59
2023/09/08 14:16:11;;;;;;;13.45;3.65;;;;;;;;;;10408385;28;20022;-61
2023/09/08 14:21:11;;;;;;;11.57;3.85;;;;;;;;;;10403062;28;20481;-60
2023/09/08 14:26:12;;;;;;;10.20;4.43;;;;;;;;;;10393141;28;20096;-58
2023/09/08 14:31:13;;;;;;;13.98;4.43;;;;;;;;;;10407732;28;20030;-57
2023/09/08 14:36:20;;;;;;;10.70;4.05;;;;;;;;;;10401222;28;20448;-52
2023/09/08 14:41:20;;;;;;;15.25;4.63;;;;;;;;;;10406521;28;20025;-57
2023/09/08 14:46:21;;;;;;;14.60;4.22;;;;;;;;;;10406668;28;20489;-59
2023/09/08 14:51:21;;;;;;;11.65;4.30;;;;;;;;;;10406105;28;20489;-61
2023/09/08 14:56:22;;;;;;;13.05;4.30;;;;;;;;;;10402401;28;20547;-59
2023/09/08 15:01:23;;;;;;;13.30;4.35;;;;;;;;;;10404768;28;20037;-62
2023/09/08 15:06:23;;;;;;;15.10;4.03;;;;;;;;;;10402001;28;20399;-56
2023/09/08 15:11:24;;;;;;;15.80;4.55;;;;;;;;;;10394661;28;20065;-59
2023/09/08 15:16:24;;;;;;;11.63;4.45;;;;;;;;;;10402483;28;20030;-58
2023/09/08 15:21:27;;;;;;;26.50;4.72;;;;;;;;;;10403261;28;20037;-58
2023/09/08 15:26:28;;;;;;;15.38;4.50;;;;;;;;;;10405715;28;20029;-46
2023/09/08 15:31:29;;;;;;;14.48;4.05;;;;;;;;;;10399767;28;20092;-45
2023/09/08 15:36:29;;;;;;;10.65;4.30;;;;;;;;;;10404501;28;20357;-45
2023/09/08 15:41:30;;;;;;;12.32;4.13;;;;;;;;;;10404259;28;20392;-45
2023/09/08 15:46:30;;;;;;;12.57;4.22;;;;;;;;;;10404400;28;20045;-45
2023/09/08 15:51:31;;;;;;;15.45;4.20;;;;;;;;;;10397126;28;20069;-45
2023/09/08 15:56:32;;;;;;;11.20;4.10;;;;;;;;;;10404872;28;20099;-45
2023/09/08 16:01:32;;;;;;;16.13;5.15;;;;;;;;;;10404163;28;20025;-45
2023/09/08 16:06:33;;;;;;;8.85;4.47;;;;;;;;;;10405671;28;20531;-45
2023/09/08 16:11:33;;;;;;;10.38;4.43;;;;;;;;;;10405023;28;20477;-45
2023/09/08 16:16:36;;;;;;;8.52;4.30;;;;;;;;;;10405056;28;20029;-45
2023/09/08 16:21:36;;;;;;;12.20;4.60;;;;;;;;;;10406536;28;20041;-46
2023/09/08 16:26:37;;;;;;;9.10;5.15;;;;;;;;;;10406323;28;20029;-45
2023/09/08 16:31:38;;;;;;;7.75;4.15;;;;;;;;;;10404841;28;20420;-45
2023/09/08 16:36:38;;;;;;;7.82;4.20;;;;;;;;;;10411641;28;20029;-50
2023/09/08 16:41:39;;;;;;;10.18;4.32;;;;;;;;;;10407156;28;20065;-45
2023/09/08 16:46:39;;;;;;;10.13;4.18;;;;;;;;;;10400268;28;20481;-46
2023/09/08 16:51:41;;;;;;;6.95;4.00;;;;;;;;;;10404021;28;20112;-46
2023/09/08 16:56:41;;;;;;;8.40;4.07;;;;;;;;;;10406748;28;20113;-45
2023/09/08 17:01:42;;;;;;;5.97;4.22;;;;;;;;;;10407660;28;20380;-47
2023/09/08 17:06:42;;;;;;;11.23;4.40;;;;;;;;;;10402664;28;20025;-47
2023/09/08 17:11:43;;;;;;;17.50;4.70;;;;;;;;;;10409527;28;20492;-46
2023/09/08 17:16:44;;;;;;;7.78;4.07;;;;;;;;;;10404438;28;20030;-47
2023/09/08 17:21:45;;;;;;;7.13;3.92;;;;;;;;;;10404461;28;20083;-47
2023/09/08 17:26:45;;;;;;;11.50;4.20;;;;;;;;;;10406393;28;20037;-46
2023/09/08 17:31:46;;;;;;;6.75;4.28;;;;;;;;;;10402148;28;20057;-46
2023/09/08 17:36:52;;;;;;;14.65;4.03;;;;;;;;;;10414959;28;20031;-47
2023/09/08 17:41:52;;;;;;;7.35;4.07;;;;;;;;;;10421670;28;20088;-46
2023/09/08 17:46:53;;;;;;;11.38;4.30;;;;;;;;;;10416761;28;20046;-46
2023/09/08 17:51:53;;;;;;;6.85;4.10;;;;;;;;;;10405418;28;20084;-47
2023/09/08 17:56:57;;;;;;;8.85;3.85;;;;;;;;;;10413184;28;20026;-46
2023/09/08 18:01:58;;;;;;;6.22;4.20;;;;;;;;;;10392913;28;20037;-46
2023/09/08 18:06:59;;;;;;;6.88;4.18;;;;;;;;;;10426567;28;20025;-46
2023/09/08 18:11:59;;;;;;;7.85;3.97;;;;;;;;;;10402885;28;20036;-48
2023/09/08 18:17:03;;;;;;;14.60;4.28;;;;;;;;;;10420342;28;20036;-46
2023/09/08 18:22:04;;;;;;;6.63;4.10;;;;;;;;;;10393318;28;20079;-47
2023/09/08 18:27:05;;;;;;;5.82;3.80;;;;;;;;;;10404198;28;20116;-46
2023/09/08 18:32:05;;;;;;;7.28;3.88;;;;;;;;;;10391183;28;20381;-46
2023/09/08 18:37:06;;;;;;;7.28;4.47;;;;;;;;;;10398840;28;20432;-46
2023/09/08 18:42:07;;;;;;;7.70;4.00;;;;;;;;;;10396559;28;20377;-49
2023/09/08 18:47:08;;;;;;;5.10;3.90;;;;;;;;;;10400017;28;20041;-46
2023/09/08 18:52:09;;;;;;;8.95;3.75;;;;;;;;;;10401096;28;20033;-47
2023/09/08 18:57:10;;;;;;;4.78;4.07;;;;;;;;;;10396403;28;20025;-47
2023/09/08 19:02:11;;;;;;;7.60;4.07;;;;;;;;;;10394851;28;20021;-46
2023/09/08 19:07:11;;;;;;;6.82;4.10;;;;;;;;;;10397103;28;20191;-46
2023/09/08 19:12:12;;;;;;;6.55;4.05;;;;;;;;;;10394030;28;20041;-46
2023/09/08 19:17:13;;;;;;;7.00;4.03;;;;;;;;;;10399786;28;20037;-49
2023/09/08 19:22:14;;;;;;;8.32;3.75;;;;;;;;;;10399769;28;20045;-46
2023/09/08 19:27:14;;;;;;;13.32;3.92;;;;;;;;;;10400366;28;20037;-46
2023/09/08 19:32:15;;;;;;;7.88;4.07;;;;;;;;;;10399595;28;20045;-46
2023/09/08 19:37:16;;;;;;;7.25;4.63;;;;;;;;;;10391522;28;20380;-46
2023/09/08 19:42:17;;;;;;;7.18;4.70;;;;;;;;;;10395765;28;20022;-48
2023/09/08 19:47:18;;;;;;;8.18;4.43;;;;;;;;;;10394196;28;20061;-46
2023/09/08 19:52:18;;;;;;;5.60;4.38;;;;;;;;;;10408397;28;20045;-46
2023/09/08 19:57:19;;;;;;;4.97;4.38;;;;;;;;;;10394826;28;20493;-47
2023/09/08 20:02:19;;;;;;;7.03;4.25;;;;;;;;;;10379667;28;20445;-46
2023/09/08 20:07:20;;;;;;;6.18;4.05;;;;;;;;;;10407585;28;20072;-46
2023/09/08 20:12:20;;;;;;;9.40;5.20;;;;;;;;;;10406796;28;20037;-46
2023/09/08 20:17:21;;;;;;;5.95;4.68;;;;;;;;;;10398542;28;20041;-46
2023/09/08 20:22:22;;;;;;;12.40;5.25;;;;;;;;;;10406711;28;20040;-46
2023/09/08 20:27:22;;;;;;;9.07;4.97;;;;;;;;;;10412248;28;20026;-46
2023/09/08 20:32:23;;;;;;;7.70;5.13;;;;;;;;;;10403376;28;20053;-50
2023/09/08 20:37:24;;;;;;;5.35;4.18;;;;;;;;;;10408076;28;20029;-46
2023/09/08 20:42:25;;;;;;;9.00;5.22;;;;;;;;;;10406467;28;20041;-46
2023/09/08 20:47:25;;;;;;;7.70;5.20;;;;;;;;;;10393782;28;20099;-46
2023/09/08 20:52:26;;;;;;;6.82;4.93;;;;;;;;;;10390581;28;20034;-51
2023/09/08 20:57:27;;;;;;;11.10;5.70;;;;;;;;;;10392650;28;20084;-46
2023/09/08 21:02:27;;;;;;;6.97;5.20;;;;;;;;;;10408793;28;20049;-46
2023/09/08 21:07:28;;;;;;;5.82;5.03;;;;;;;;;;10398491;28;20025;-47
2023/09/08 21:12:29;;;;;;;8.18;5.45;;;;;;;;;;10396860;28;20042;-47
2023/09/08 21:17:29;;;;;;;7.47;5.32;;;;;;;;;;10403098;28;20037;-47
2023/09/08 21:22:30;;;;;;;8.40;5.60;;;;;;;;;;10410338;28;20240;-48
2023/09/08 21:27:30;;;;;;;9.48;5.28;;;;;;;;;;10402217;28;20037;-52
2023/09/08 21:32:31;;;;;;;8.65;5.88;;;;;;;;;;10405927;28;20037;-58
2023/09/08 21:37:31;;;;;;;5.97;5.18;;;;;;;;;;10387018;28;20018;-60
2023/09/08 21:42:32;;;;;;;7.07;5.18;;;;;;;;;;10396398;28;20022;-59
2023/09/08 21:47:32;;;;;;;5.78;4.63;;;;;;;;;;10397276;28;20029;-53
2023/09/08 21:52:33;;;;;;;7.22;5.88;;;;;;;;;;10404543;28;20657;-57
2023/09/08 21:57:34;;;;;;;8.18;5.65;;;;;;;;;;10406202;28;20029;-58
2023/09/08 22:02:34;;;;;;;10.50;5.40;;;;;;;;;;10404927;28;20484;-59
2023/09/08 22:07:35;;;;;;;9.00;4.70;;;;;;;;;;10404383;28;20033;-59
2023/09/08 22:12:35;;;;;;;6.85;5.38;;;;;;;;;;10405863;28;20033;-60
2023/09/08 22:17:36;;;;;;;13.13;4.95;;;;;;;;;;10404962;28;20025;-56
2023/09/08 22:22:36;;;;;;;10.45;5.57;;;;;;;;;;10404204;28;20036;-60
2023/09/08 22:27:38;;;;;;;8.75;5.32;;;;;;;;;;10402308;28;20034;-58
2023/09/08 22:32:38;;;;;;;9.77;5.20;;;;;;;;;;10404620;28;20033;-46
2023/09/08 22:37:39;;;;;;;14.38;4.78;;;;;;;;;;10400000;28;20400;-47
2023/09/08 22:42:39;;;;;;;8.85;4.43;;;;;;;;;;10402959;28;20393;-47
2023/09/08 22:47:40;;;;;;;12.80;4.68;;;;;;;;;;10404401;28;20045;-47
2023/09/08 22:52:41;;;;;;;15.23;4.70;;;;;;;;;;10405678;28;20033;-48
2023/09/08 22:57:41;;;;;;;10.00;5.05;;;;;;;;;;10400951;28;20420;-47
2023/09/08 23:02:42;;;;;;;8.73;4.28;;;;;;;;;;10404464;28;20477;-46
2023/09/08 23:07:44;;;;;;;6.40;4.63;;;;;;;;;;10400581;28;20657;-47
2023/09/08 23:12:45;;;;;;;8.00;4.25;;;;;;;;;;10397286;28;20030;-47
2023/09/08 23:17:46;;;;;;;9.43;4.57;;;;;;;;;;10406246;28;20026;-47
2023/09/08 23:22:46;;;;;;;8.75;4.60;;;;;;;;;;10411692;28;20025;-47
2023/09/08 23:27:47;;;;;;;8.27;4.28;;;;;;;;;;10423476;28;20029;-48
2023/09/08 23:32:48;;;;;;;6.72;4.53;;;;;;;;;;10411492;28;20033;-52
2023/09/08 23:37:48;;;;;;;4.63;4.00;;;;;;;;;;10412266;28;20555;-55
2023/09/08 23:42:49;;;;;;;6.88;4.57;;;;;;;;;;10409798;28;20091;-48
2023/09/08 23:47:49;;;;;;;5.72;4.10;;;;;;;;;;10403066;28;20025;-47
2023/09/08 23:52:50;;;;;;;6.20;4.15;;;;;;;;;;10411332;28;20036;-48
2023/09/08 23:57:50;;;;;;;6.40;3.63;;;;;;;;;;10410977;28;20028;-48
